NOZ1327 EGCC-ENZV
Flight info
| Callsign | NOZ1327 |
|---|---|
| Flight time | 1h 8m |
| Altitude | 23000 |
| Route | POL P17 NUKPE/N0359F250 P17 MEJAC/N0439F370 DCT LAMRO DCT NIVUN DCT UNBUD |
| Aircraft | B738/M-SDE2E3GHIJ1LRWXY/LB1 |
Departure
| Time | 2026-04-20 21:05 |
|---|---|
| Airport | Manchester Airport (EGCC) |
Arrival
| Time | 2026-04-20 22:14 |
|---|---|
| Airport | Stavanger Airport, Sola (ENZV) |
| Time | Latitude | Longitude | Altitude | Speed | Heading |
|---|---|---|---|---|---|
| 2026-04-20 20:26 | 53.36523 | -2.27883 | 254 ft | 0 kts | 45° |
| 2026-04-20 20:53 | 53.36523 | -2.27884 | 254 ft | 0 kts | 45° |
| 2026-04-20 20:53 | 53.36508 | -2.27909 | 254 ft | 4 kts | 45° |
| 2026-04-20 20:53 | 53.36492 | -2.27934 | 254 ft | 4 kts | 46° |
| 2026-04-20 20:53 | 53.36480 | -2.27968 | 254 ft | 4 kts | 95° |
| 2026-04-20 20:54 | 53.36489 | -2.28001 | 254 ft | 4 kts | 135° |
| 2026-04-20 20:54 | 53.36508 | -2.28033 | 254 ft | 3 kts | 135° |
| 2026-04-20 20:54 | 53.36510 | -2.28036 | 254 ft | 0 kts | 135° |
| 2026-04-20 20:58 | 53.36501 | -2.28022 | 254 ft | 4 kts | 143° |
| 2026-04-20 20:59 | 53.36455 | -2.27969 | 254 ft | 11 kts | 137° |
| 2026-04-20 20:59 | 53.36384 | -2.27946 | 254 ft | 12 kts | 223° |
| 2026-04-20 20:59 | 53.36322 | -2.28044 | 254 ft | 12 kts | 211° |
| 2026-04-20 20:59 | 53.36249 | -2.28094 | 254 ft | 11 kts | 211° |
| 2026-04-20 21:00 | 53.36184 | -2.28156 | 254 ft | 11 kts | 192° |
| 2026-04-20 21:00 | 53.36122 | -2.28097 | 254 ft | 11 kts | 137° |
| 2026-04-20 21:00 | 53.36069 | -2.28014 | 254 ft | 10 kts | 137° |
| 2026-04-20 21:00 | 53.36016 | -2.27935 | 254 ft | 11 kts | 138° |
| 2026-04-20 21:01 | 53.35952 | -2.27859 | 254 ft | 12 kts | 159° |
| 2026-04-20 21:01 | 53.35872 | -2.27852 | 253 ft | 13 kts | 186° |
| 2026-04-20 21:01 | 53.35772 | -2.27870 | 247 ft | 16 kts | 186° |
| 2026-04-20 21:01 | 53.35666 | -2.27887 | 242 ft | 11 kts | 185° |
| 2026-04-20 21:02 | 53.35604 | -2.27943 | 238 ft | 12 kts | 230° |
| 2026-04-20 21:02 | 53.35543 | -2.28064 | 234 ft | 16 kts | 224° |
| 2026-04-20 21:02 | 53.35446 | -2.28153 | 234 ft | 16 kts | 194° |
| 2026-04-20 21:02 | 53.35339 | -2.28187 | 235 ft | 17 kts | 200° |
| 2026-04-20 21:03 | 53.35236 | -2.28297 | 231 ft | 19 kts | 225° |
| 2026-04-20 21:03 | 53.35134 | -2.28500 | 226 ft | 26 kts | 231° |
| 2026-04-20 21:03 | 53.35024 | -2.28723 | 227 ft | 24 kts | 226° |
| 2026-04-20 21:03 | 53.34909 | -2.28924 | 223 ft | 24 kts | 226° |
| 2026-04-20 21:04 | 53.34804 | -2.29069 | 223 ft | 14 kts | 199° |
| 2026-04-20 21:04 | 53.34729 | -2.29056 | 220 ft | 11 kts | 155° |
| 2026-04-20 21:04 | 53.34667 | -2.28988 | 217 ft | 7 kts | 127° |
| 2026-04-20 21:04 | 53.34682 | -2.28928 | 221 ft | 7 kts | 49° |
| 2026-04-20 21:05 | 53.34791 | -2.28700 | 227 ft | 58 kts | 50° |
| 2026-04-20 21:05 | 53.35197 | -2.27862 | 238 ft | 127 kts | 51° |
| 2026-04-20 21:05 | 53.35848 | -2.26501 | 500 ft | 159 kts | 53° |
| 2026-04-20 21:05 | 53.36541 | -2.25056 | 1401 ft | 158 kts | 54° |
| 2026-04-20 21:06 | 53.37266 | -2.23519 | 1881 ft | 183 kts | 55° |
| 2026-04-20 21:06 | 53.38096 | -2.21732 | 2207 ft | 207 kts | 55° |
| 2026-04-20 21:06 | 53.39030 | -2.19686 | 2435 ft | 235 kts | 54° |
| 2026-04-20 21:06 | 53.40033 | -2.17478 | 3138 ft | 243 kts | 53° |
| 2026-04-20 21:07 | 53.41088 | -2.15212 | 3941 ft | 246 kts | 52° |
| 2026-04-20 21:07 | 53.42136 | -2.12963 | 4771 ft | 246 kts | 52° |
| 2026-04-20 21:07 | 53.43211 | -2.10687 | 5490 ft | 252 kts | 48° |
| 2026-04-20 21:07 | 53.44705 | -2.09166 | 6281 ft | 256 kts | 11° |
| 2026-04-20 21:08 | 53.46489 | -2.09200 | 7173 ft | 259 kts | 356° |
| 2026-04-20 21:08 | 53.48302 | -2.09437 | 8037 ft | 265 kts | 359° |
| 2026-04-20 21:08 | 53.50156 | -2.09577 | 9049 ft | 268 kts | 360° |
| 2026-04-20 21:08 | 53.52033 | -2.09661 | 10074 ft | 272 kts | 1° |
| 2026-04-20 21:09 | 53.53954 | -2.09721 | 10903 ft | 283 kts | 1° |
| 2026-04-20 21:09 | 53.56019 | -2.09780 | 11171 ft | 311 kts | 0° |
| 2026-04-20 21:09 | 53.58246 | -2.09847 | 11783 ft | 325 kts | 1° |
| 2026-04-20 21:09 | 53.60523 | -2.09917 | 12675 ft | 330 kts | 1° |
| 2026-04-20 21:10 | 53.62832 | -2.09987 | 13502 ft | 336 kts | 0° |
| 2026-04-20 21:10 | 53.65205 | -2.10060 | 14304 ft | 344 kts | 0° |
| 2026-04-20 21:10 | 53.67609 | -2.10131 | 15127 ft | 347 kts | 0° |
| 2026-04-20 21:10 | 53.70029 | -2.10201 | 16032 ft | 349 kts | 0° |
| 2026-04-20 21:11 | 53.72470 | -2.10272 | 16877 ft | 352 kts | 0° |
| 2026-04-20 21:11 | 53.74929 | -2.10191 | 17644 ft | 357 kts | 9° |
| 2026-04-20 21:11 | 53.77361 | -2.09240 | 18436 ft | 360 kts | 16° |
| 2026-04-20 21:11 | 53.79783 | -2.08073 | 19159 ft | 365 kts | 17° |
| 2026-04-20 21:12 | 53.82228 | -2.06881 | 19906 ft | 367 kts | 16° |
| 2026-04-20 21:12 | 53.84695 | -2.05699 | 20625 ft | 370 kts | 15° |
| 2026-04-20 21:12 | 53.87180 | -2.04535 | 21351 ft | 372 kts | 14° |
| 2026-04-20 21:12 | 53.89689 | -2.03377 | 22056 ft | 376 kts | 14° |
| 2026-04-20 21:13 | 53.92231 | -2.02214 | 22663 ft | 381 kts | 14° |
| 2026-04-20 21:13 | 53.94806 | -2.01036 | 23311 ft | 385 kts | 14° |
| 2026-04-20 21:13 | 53.97404 | -1.99847 | 23953 ft | 389 kts | 14° |
| 2026-04-20 21:13 | 54.00022 | -1.98649 | 24493 ft | 392 kts | 14° |
| 2026-04-20 21:14 | 54.02669 | -1.97435 | 24992 ft | 396 kts | 14° |
| 2026-04-20 21:14 | 54.05340 | -1.96213 | 25476 ft | 400 kts | 14° |
| 2026-04-20 21:14 | 54.08037 | -1.94978 | 25951 ft | 403 kts | 14° |
| 2026-04-20 21:14 | 54.10760 | -1.93730 | 26412 ft | 407 kts | 14° |
| 2026-04-20 21:15 | 54.13507 | -1.92469 | 26902 ft | 411 kts | 13° |
| 2026-04-20 21:15 | 54.16279 | -1.91195 | 27348 ft | 414 kts | 13° |
| 2026-04-20 21:15 | 54.19072 | -1.89908 | 27789 ft | 418 kts | 13° |
| 2026-04-20 21:15 | 54.21891 | -1.88604 | 28225 ft | 421 kts | 13° |
| 2026-04-20 21:16 | 54.24731 | -1.87288 | 28667 ft | 425 kts | 14° |
| 2026-04-20 21:16 | 54.27596 | -1.85959 | 29058 ft | 429 kts | 14° |
| 2026-04-20 21:16 | 54.30479 | -1.84550 | 29440 ft | 433 kts | 18° |
| 2026-04-20 21:16 | 54.33235 | -1.82392 | 29836 ft | 438 kts | 29° |
| 2026-04-20 21:17 | 54.35750 | -1.79438 | 30246 ft | 442 kts | 38° |
| 2026-04-20 21:17 | 54.37980 | -1.75787 | 30589 ft | 445 kts | 45° |
| 2026-04-20 21:17 | 54.40122 | -1.71918 | 30886 ft | 448 kts | 46° |
| 2026-04-20 21:17 | 54.42257 | -1.67988 | 31180 ft | 451 kts | 46° |
| 2026-04-20 21:18 | 54.44401 | -1.64030 | 31464 ft | 454 kts | 46° |
| 2026-04-20 21:18 | 54.46562 | -1.60054 | 31759 ft | 456 kts | 46° |
| 2026-04-20 21:18 | 54.48736 | -1.56077 | 32090 ft | 457 kts | 46° |
| 2026-04-20 21:18 | 54.50919 | -1.52099 | 32443 ft | 458 kts | 46° |
| 2026-04-20 21:19 | 54.53108 | -1.48118 | 32770 ft | 458 kts | 46° |
| 2026-04-20 21:19 | 54.55306 | -1.44122 | 33060 ft | 460 kts | 46° |
| 2026-04-20 21:19 | 54.57475 | -1.40176 | 33394 ft | 460 kts | 46° |
| 2026-04-20 21:20 | 54.61865 | -1.32170 | 34154 ft | 459 kts | 46° |
| 2026-04-20 21:20 | 54.64059 | -1.28158 | 34475 ft | 459 kts | 46° |
| 2026-04-20 21:20 | 54.65542 | -1.25444 | 34672 ft | 459 kts | 46° |
| 2026-04-20 21:20 | 54.68469 | -1.20072 | 35038 ft | 459 kts | 46° |
| 2026-04-20 21:21 | 54.70628 | -1.16105 | 35295 ft | 459 kts | 46° |
| 2026-04-20 21:21 | 54.72815 | -1.12077 | 35571 ft | 459 kts | 46° |
| 2026-04-20 21:21 | 54.75001 | -1.08044 | 35872 ft | 459 kts | 46° |
| 2026-04-20 21:21 | 54.77177 | -1.04023 | 36200 ft | 457 kts | 46° |
| 2026-04-20 21:22 | 54.79351 | -1.00000 | 36484 ft | 457 kts | 46° |
| 2026-04-20 21:22 | 54.81522 | -0.95976 | 36759 ft | 457 kts | 46° |
| 2026-04-20 21:22 | 54.83692 | -0.91945 | 37019 ft | 457 kts | 46° |
| 2026-04-20 21:22 | 54.85855 | -0.87922 | 37316 ft | 456 kts | 46° |
| 2026-04-20 21:23 | 54.87320 | -0.85193 | 37494 ft | 456 kts | 46° |
| 2026-04-20 21:23 | 54.90176 | -0.79864 | 37849 ft | 456 kts | 46° |
| 2026-04-20 21:23 | 54.91635 | -0.77137 | 38011 ft | 456 kts | 46° |
| 2026-04-20 21:23 | 54.93790 | -0.73102 | 38306 ft | 455 kts | 46° |
| 2026-04-20 21:24 | 54.95944 | -0.69063 | 38550 ft | 455 kts | 46° |
| 2026-04-20 21:24 | 54.98092 | -0.65031 | 38839 ft | 454 kts | 46° |
| 2026-04-20 21:24 | 55.00238 | -0.60992 | 39063 ft | 454 kts | 46° |
| 2026-04-20 21:24 | 55.02379 | -0.56955 | 39259 ft | 454 kts | 46° |
| 2026-04-20 21:25 | 55.04516 | -0.52919 | 39397 ft | 450 kts | 46° |
| 2026-04-20 21:25 | 55.08764 | -0.44879 | 39417 ft | 452 kts | 46° |
| 2026-04-20 21:26 | 55.13042 | -0.36751 | 39421 ft | 456 kts | 46° |
| 2026-04-20 21:26 | 55.17352 | -0.28544 | 39429 ft | 460 kts | 46° |
| 2026-04-20 21:27 | 55.21676 | -0.20278 | 39414 ft | 459 kts | 47° |
| 2026-04-20 21:27 | 55.25917 | -0.12137 | 39404 ft | 452 kts | 47° |
| 2026-04-20 21:28 | 55.30137 | -0.04014 | 39419 ft | 450 kts | 47° |
| 2026-04-20 21:28 | 55.34339 | 0.04103 | 39421 ft | 449 kts | 47° |
| 2026-04-20 21:29 | 55.38527 | 0.12220 | 39420 ft | 448 kts | 47° |
| 2026-04-20 21:29 | 55.42711 | 0.20356 | 39422 ft | 448 kts | 47° |
| 2026-04-20 21:30 | 55.46886 | 0.28504 | 39424 ft | 449 kts | 47° |
| 2026-04-20 21:30 | 55.51070 | 0.36697 | 39432 ft | 450 kts | 47° |
| 2026-04-20 21:31 | 55.55252 | 0.44914 | 39437 ft | 450 kts | 48° |
| 2026-04-20 21:31 | 55.59439 | 0.53171 | 39432 ft | 451 kts | 48° |
| 2026-04-20 21:32 | 55.63629 | 0.61463 | 39441 ft | 452 kts | 48° |
| 2026-04-20 21:32 | 55.67816 | 0.69776 | 39439 ft | 453 kts | 48° |
| 2026-04-20 21:33 | 55.71977 | 0.78067 | 39435 ft | 453 kts | 48° |
| 2026-04-20 21:33 | 55.76155 | 0.86418 | 39440 ft | 453 kts | 48° |
| 2026-04-20 21:34 | 55.80329 | 0.94791 | 39451 ft | 452 kts | 48° |
| 2026-04-20 21:34 | 55.84490 | 1.03168 | 39446 ft | 451 kts | 49° |
| 2026-04-20 21:35 | 55.88630 | 1.11536 | 39446 ft | 450 kts | 49° |
| 2026-04-20 21:35 | 55.92755 | 1.19904 | 39446 ft | 449 kts | 49° |
| 2026-04-20 21:36 | 55.96862 | 1.28262 | 39446 ft | 447 kts | 49° |
| 2026-04-20 21:36 | 56.00956 | 1.36619 | 39451 ft | 447 kts | 49° |
| 2026-04-20 21:37 | 56.05038 | 1.44981 | 39450 ft | 446 kts | 49° |
| 2026-04-20 21:37 | 56.09106 | 1.53344 | 39455 ft | 446 kts | 49° |
| 2026-04-20 21:38 | 56.13171 | 1.61734 | 39457 ft | 446 kts | 49° |
| 2026-04-20 21:38 | 56.17233 | 1.70145 | 39458 ft | 446 kts | 49° |
| 2026-04-20 21:39 | 56.21295 | 1.78586 | 39460 ft | 447 kts | 49° |
| 2026-04-20 21:39 | 56.25336 | 1.87012 | 39460 ft | 448 kts | 49° |
| 2026-04-20 21:40 | 56.29419 | 1.95555 | 39458 ft | 448 kts | 50° |
| 2026-04-20 21:40 | 56.33445 | 2.04014 | 39461 ft | 447 kts | 50° |
| 2026-04-20 21:41 | 56.37491 | 2.12541 | 39460 ft | 447 kts | 50° |
| 2026-04-20 21:41 | 56.41527 | 2.21077 | 39467 ft | 447 kts | 50° |
| 2026-04-20 21:42 | 56.45561 | 2.29641 | 39465 ft | 447 kts | 50° |
| 2026-04-20 21:42 | 56.49592 | 2.38228 | 39466 ft | 447 kts | 50° |
| 2026-04-20 21:43 | 56.53613 | 2.46825 | 39467 ft | 447 kts | 50° |
| 2026-04-20 21:43 | 56.57624 | 2.55432 | 39465 ft | 447 kts | 50° |
| 2026-04-20 21:44 | 56.61635 | 2.64072 | 39472 ft | 447 kts | 50° |
| 2026-04-20 21:44 | 56.65638 | 2.72724 | 39471 ft | 447 kts | 51° |
| 2026-04-20 21:45 | 56.69625 | 2.81374 | 39469 ft | 446 kts | 51° |
| 2026-04-20 21:45 | 56.73606 | 2.90039 | 39474 ft | 446 kts | 51° |
| 2026-04-20 21:46 | 56.77581 | 2.98725 | 39473 ft | 446 kts | 51° |
| 2026-04-20 21:46 | 56.81548 | 3.07427 | 39472 ft | 446 kts | 51° |
| 2026-04-20 21:47 | 56.85505 | 3.16137 | 39471 ft | 445 kts | 51° |
| 2026-04-20 21:47 | 56.89452 | 3.24858 | 39468 ft | 445 kts | 51° |
| 2026-04-20 21:48 | 56.93398 | 3.33606 | 39482 ft | 445 kts | 51° |
| 2026-04-20 21:48 | 56.97334 | 3.42365 | 39483 ft | 445 kts | 51° |
| 2026-04-20 21:49 | 57.01271 | 3.51134 | 39493 ft | 445 kts | 49° |
| 2026-04-20 21:49 | 57.05957 | 3.58539 | 39479 ft | 447 kts | 32° |
| 2026-04-20 21:50 | 57.11342 | 3.64262 | 39487 ft | 448 kts | 31° |
| 2026-04-20 21:50 | 57.16757 | 3.69924 | 39494 ft | 448 kts | 31° |
| 2026-04-20 21:51 | 57.22154 | 3.75682 | 39507 ft | 448 kts | 31° |
| 2026-04-20 21:51 | 57.27562 | 3.81525 | 39019 ft | 456 kts | 31° |
| 2026-04-20 21:51 | 57.30291 | 3.84485 | 38410 ft | 453 kts | 32° |
| 2026-04-20 21:52 | 57.33003 | 3.87428 | 37789 ft | 451 kts | 32° |
| 2026-04-20 21:52 | 57.35697 | 3.90357 | 37168 ft | 449 kts | 32° |
| 2026-04-20 21:52 | 57.38392 | 3.93290 | 36530 ft | 448 kts | 32° |
| 2026-04-20 21:52 | 57.41075 | 3.96217 | 35845 ft | 448 kts | 32° |
| 2026-04-20 21:53 | 57.43763 | 3.99156 | 35149 ft | 449 kts | 32° |
| 2026-04-20 21:53 | 57.46454 | 4.02102 | 34401 ft | 450 kts | 33° |
| 2026-04-20 21:53 | 57.49157 | 4.05066 | 33533 ft | 451 kts | 33° |
| 2026-04-20 21:53 | 57.51817 | 4.07987 | 32755 ft | 450 kts | 33° |
| 2026-04-20 21:54 | 57.54496 | 4.10931 | 32211 ft | 443 kts | 33° |
| 2026-04-20 21:54 | 57.57079 | 4.13986 | 31630 ft | 436 kts | 39° |
| 2026-04-20 21:54 | 57.59339 | 4.17653 | 31076 ft | 428 kts | 46° |
| 2026-04-20 21:54 | 57.61443 | 4.21521 | 30547 ft | 422 kts | 47° |
| 2026-04-20 21:55 | 57.63509 | 4.25360 | 29965 ft | 416 kts | 47° |
| 2026-04-20 21:55 | 57.65540 | 4.29131 | 29425 ft | 409 kts | 47° |
| 2026-04-20 21:55 | 57.67548 | 4.32846 | 28902 ft | 403 kts | 47° |
| 2026-04-20 21:55 | 57.69528 | 4.36495 | 28381 ft | 397 kts | 47° |
| 2026-04-20 21:56 | 57.71481 | 4.40086 | 27870 ft | 391 kts | 47° |
| 2026-04-20 21:56 | 57.73413 | 4.43637 | 27361 ft | 386 kts | 47° |
| 2026-04-20 21:56 | 57.75317 | 4.47138 | 26853 ft | 382 kts | 47° |
| 2026-04-20 21:56 | 57.77201 | 4.50607 | 26357 ft | 378 kts | 47° |
| 2026-04-20 21:57 | 57.79066 | 4.54048 | 25853 ft | 374 kts | 47° |
| 2026-04-20 21:57 | 57.80910 | 4.57453 | 25365 ft | 371 kts | 47° |
| 2026-04-20 21:57 | 57.82740 | 4.60839 | 24885 ft | 368 kts | 47° |
| 2026-04-20 21:57 | 57.84550 | 4.64192 | 24394 ft | 365 kts | 47° |
| 2026-04-20 21:58 | 57.86349 | 4.67529 | 23893 ft | 361 kts | 47° |
| 2026-04-20 21:58 | 57.88128 | 4.70835 | 23374 ft | 357 kts | 47° |
| 2026-04-20 21:58 | 57.89881 | 4.74096 | 22900 ft | 353 kts | 47° |
| 2026-04-20 21:58 | 57.91612 | 4.77324 | 22433 ft | 349 kts | 47° |
| 2026-04-20 21:59 | 57.93328 | 4.80525 | 21967 ft | 345 kts | 47° |
| 2026-04-20 21:59 | 57.95024 | 4.83695 | 21485 ft | 344 kts | 47° |
| 2026-04-20 21:59 | 57.96717 | 4.86865 | 21038 ft | 343 kts | 47° |
| 2026-04-20 21:59 | 57.98407 | 4.90035 | 20567 ft | 345 kts | 47° |
| 2026-04-20 22:00 | 58.00133 | 4.93278 | 20105 ft | 355 kts | 47° |
| 2026-04-20 22:00 | 58.01894 | 4.96588 | 19616 ft | 358 kts | 46° |
| 2026-04-20 22:00 | 58.03650 | 4.99893 | 19131 ft | 355 kts | 46° |
| 2026-04-20 22:00 | 58.05395 | 5.03181 | 18628 ft | 353 kts | 46° |
| 2026-04-20 22:01 | 58.07122 | 5.06438 | 18101 ft | 349 kts | 47° |
| 2026-04-20 22:01 | 58.08830 | 5.09663 | 17633 ft | 345 kts | 47° |
| 2026-04-20 22:01 | 58.10514 | 5.12850 | 17139 ft | 341 kts | 46° |
| 2026-04-20 22:01 | 58.12377 | 5.15583 | 16672 ft | 341 kts | 28° |
| 2026-04-20 22:02 | 58.14640 | 5.16876 | 16264 ft | 341 kts | 9° |
| 2026-04-20 22:02 | 58.17018 | 5.16917 | 15710 ft | 342 kts | 4° |
| 2026-04-20 22:02 | 58.19300 | 5.17855 | 15035 ft | 342 kts | 22° |
| 2026-04-20 22:02 | 58.21522 | 5.19439 | 14555 ft | 340 kts | 23° |
| 2026-04-20 22:03 | 58.23733 | 5.20991 | 14059 ft | 338 kts | 22° |
| 2026-04-20 22:03 | 58.25937 | 5.22497 | 13547 ft | 335 kts | 22° |
| 2026-04-20 22:03 | 58.28125 | 5.23957 | 13065 ft | 332 kts | 21° |
| 2026-04-20 22:03 | 58.30303 | 5.25387 | 12543 ft | 330 kts | 21° |
| 2026-04-20 22:04 | 58.32468 | 5.26797 | 12044 ft | 328 kts | 21° |
| 2026-04-20 22:04 | 58.34624 | 5.28194 | 11562 ft | 326 kts | 21° |
| 2026-04-20 22:04 | 58.36751 | 5.29570 | 11077 ft | 320 kts | 21° |
| 2026-04-20 22:04 | 58.38850 | 5.30928 | 10362 ft | 319 kts | 21° |
| 2026-04-20 22:05 | 58.40956 | 5.32289 | 9620 ft | 319 kts | 21° |
| 2026-04-20 22:05 | 58.43040 | 5.33638 | 8990 ft | 314 kts | 21° |
| 2026-04-20 22:05 | 58.45100 | 5.34973 | 8326 ft | 311 kts | 21° |
| 2026-04-20 22:05 | 58.47142 | 5.36298 | 7682 ft | 308 kts | 21° |
| 2026-04-20 22:06 | 58.49159 | 5.37606 | 7043 ft | 305 kts | 21° |
| 2026-04-20 22:06 | 58.51166 | 5.38911 | 6375 ft | 303 kts | 21° |
| 2026-04-20 22:06 | 58.53156 | 5.40206 | 5730 ft | 303 kts | 20° |
| 2026-04-20 22:06 | 58.55146 | 5.41501 | 5279 ft | 301 kts | 20° |
| 2026-04-20 22:07 | 58.57114 | 5.42782 | 4889 ft | 297 kts | 20° |
| 2026-04-20 22:07 | 58.59058 | 5.44052 | 4564 ft | 290 kts | 20° |
| 2026-04-20 22:07 | 58.60925 | 5.45275 | 4449 ft | 278 kts | 20° |
| 2026-04-20 22:07 | 58.62720 | 5.46449 | 4343 ft | 268 kts | 21° |
| 2026-04-20 22:08 | 58.64446 | 5.47579 | 4247 ft | 257 kts | 21° |
| 2026-04-20 22:08 | 58.66103 | 5.48668 | 4166 ft | 247 kts | 21° |
| 2026-04-20 22:08 | 58.67695 | 5.49717 | 4085 ft | 236 kts | 21° |
| 2026-04-20 22:08 | 58.69223 | 5.50732 | 4019 ft | 229 kts | 21° |
| 2026-04-20 22:09 | 58.70586 | 5.52159 | 3781 ft | 222 kts | 49° |
| 2026-04-20 22:09 | 58.71300 | 5.54712 | 3611 ft | 212 kts | 71° |
| 2026-04-20 22:09 | 58.71798 | 5.57265 | 3484 ft | 198 kts | 70° |
| 2026-04-20 22:09 | 58.72282 | 5.59717 | 3128 ft | 195 kts | 70° |
| 2026-04-20 22:10 | 58.72599 | 5.61323 | 2951 ft | 193 kts | 69° |
| 2026-04-20 22:10 | 58.73341 | 5.63426 | 2738 ft | 194 kts | 34° |
| 2026-04-20 22:10 | 58.74637 | 5.64038 | 2564 ft | 194 kts | 2° |
| 2026-04-20 22:10 | 58.75967 | 5.64089 | 2292 ft | 189 kts | 3° |
| 2026-04-20 22:11 | 58.77269 | 5.64096 | 2026 ft | 184 kts | 1° |
| 2026-04-20 22:11 | 58.78520 | 5.64061 | 1776 ft | 175 kts | 0° |
| 2026-04-20 22:11 | 58.79694 | 5.64024 | 1542 ft | 163 kts | 0° |
| 2026-04-20 22:11 | 58.80779 | 5.63990 | 1350 ft | 147 kts | 1° |
| 2026-04-20 22:12 | 58.81762 | 5.63962 | 1128 ft | 138 kts | 0° |
| 2026-04-20 22:12 | 58.82706 | 5.63934 | 941 ft | 135 kts | 0° |
| 2026-04-20 22:12 | 58.83651 | 5.63909 | 763 ft | 136 kts | 0° |
| 2026-04-20 22:12 | 58.84599 | 5.63883 | 572 ft | 137 kts | 359° |
| 2026-04-20 22:13 | 58.85565 | 5.63839 | 372 ft | 141 kts | 359° |
| 2026-04-20 22:13 | 58.86548 | 5.63816 | 198 ft | 141 kts | 359° |
| 2026-04-20 22:13 | 58.87514 | 5.63788 | 39 ft | 133 kts | 359° |
| 2026-04-20 22:13 | 58.88225 | 5.63766 | 30 ft | 59 kts | 359° |
| 2026-04-20 22:14 | 58.88569 | 5.63756 | 28 ft | 31 kts | 359° |
| 2026-04-20 22:14 | 58.88698 | 5.63717 | 27 ft | 12 kts | 311° |
| 2026-04-20 22:14 | 58.88708 | 5.63557 | 29 ft | 11 kts | 270° |
| 2026-04-20 22:14 | 58.88695 | 5.63439 | 29 ft | 9 kts | 228° |
| 2026-04-20 22:15 | 58.88634 | 5.63420 | 31 ft | 10 kts | 179° |
| 2026-04-20 22:15 | 58.88550 | 5.63424 | 30 ft | 15 kts | 180° |
| 2026-04-20 22:15 | 58.88428 | 5.63426 | 30 ft | 20 kts | 178° |
| 2026-04-20 22:15 | 58.88314 | 5.63429 | 30 ft | 12 kts | 180° |
| 2026-04-20 22:16 | 58.88266 | 5.63318 | 29 ft | 12 kts | 230° |
| 2026-04-20 22:16 | 58.88186 | 5.63302 | 29 ft | 12 kts | 184° |
| 2026-04-20 22:16 | 58.88104 | 5.63239 | 27 ft | 15 kts | 217° |
| 2026-04-20 22:16 | 58.88032 | 5.63102 | 29 ft | 15 kts | 227° |
| 2026-04-20 22:17 | 58.87990 | 5.62937 | 26 ft | 12 kts | 259° |
| 2026-04-20 22:17 | 58.87995 | 5.62778 | 25 ft | 12 kts | 285° |
| 2026-04-20 22:17 | 58.88019 | 5.62661 | 26 ft | 6 kts | 333° |
| 2026-04-20 22:17 | 58.88054 | 5.62669 | 26 ft | 2 kts | 13° |
| 2026-04-20 22:18 | 58.88066 | 5.62675 | 26 ft | 2 kts | 14° |
| 2026-04-20 22:18 | 58.88076 | 5.62680 | 28 ft | 0 kts | 15° |
| 2026-04-20 22:18 | 58.88077 | 5.62680 | 24 ft | 0 kts | 15° |